sensor_id;sensor_type;location;lat;lon;timestamp;P1;durP1;ratioP1;P2;durP2;ratioP2
18455;SDS011;9357;49.900;8.208;2023-02-01T00:00:04;9.10;;;6.45;;
18455;SDS011;9357;49.900;8.208;2023-02-01T00:01:37;9.70;;;6.45;;
18455;SDS011;9357;49.900;8.208;2023-02-01T00:03:10;10.50;;;6.80;;
18455;SDS011;9357;49.900;8.208;2023-02-01T00:04:43;8.10;;;6.22;;
18455;SDS011;9357;49.900;8.208;2023-02-01T00:06:16;8.73;;;6.40;;
18455;SDS011;9357;49.900;8.208;2023-02-01T00:07:49;7.90;;;6.13;;
18455;SDS011;9357;49.900;8.208;2023-02-01T00:09:22;7.63;;;6.25;;
18455;SDS011;9357;49.900;8.208;2023-02-01T00:10:57;7.45;;;6.00;;
18455;SDS011;9357;49.900;8.208;2023-02-01T00:12:30;10.02;;;6.95;;
18455;SDS011;9357;49.900;8.208;2023-02-01T00:14:05;8.60;;;6.20;;
18455;SDS011;9357;49.900;8.208;2023-02-01T00:15:39;7.47;;;6.25;;
18455;SDS011;9357;49.900;8.208;2023-02-01T00:17:11;9.27;;;6.25;;
18455;SDS011;9357;49.900;8.208;2023-02-01T00:18:44;7.07;;;6.30;;
18455;SDS011;9357;49.900;8.208;2023-02-01T00:20:18;7.78;;;6.43;;
18455;SDS011;9357;49.900;8.208;2023-02-01T00:21:51;10.00;;;6.22;;
18455;SDS011;9357;49.900;8.208;2023-02-01T00:23:24;10.95;;;6.70;;
18455;SDS011;9357;49.900;8.208;2023-02-01T00:24:56;7.50;;;6.45;;
18455;SDS011;9357;49.900;8.208;2023-02-01T00:26:30;7.95;;;6.40;;
18455;SDS011;9357;49.900;8.208;2023-02-01T00:28:04;9.55;;;7.00;;
18455;SDS011;9357;49.900;8.208;2023-02-01T00:29:38;9.43;;;6.65;;
18455;SDS011;9357;49.900;8.208;2023-02-01T00:31:11;10.38;;;6.65;;
18455;SDS011;9357;49.900;8.208;2023-02-01T00:32:43;9.63;;;6.53;;
18455;SDS011;9357;49.900;8.208;2023-02-01T00:34:18;9.40;;;6.70;;
18455;SDS011;9357;49.900;8.208;2023-02-01T00:35:55;7.13;;;6.03;;
18455;SDS011;9357;49.900;8.208;2023-02-01T00:37:28;7.40;;;6.20;;
18455;SDS011;9357;49.900;8.208;2023-02-01T00:39:01;9.05;;;6.20;;
18455;SDS011;9357;49.900;8.208;2023-02-01T00:40:33;7.30;;;6.15;;
18455;SDS011;9357;49.900;8.208;2023-02-01T00:42:05;7.50;;;5.95;;
18455;SDS011;9357;49.900;8.208;2023-02-01T00:43:38;9.90;;;6.07;;
18455;SDS011;9357;49.900;8.208;2023-02-01T00:45:12;7.50;;;6.32;;
18455;SDS011;9357;49.900;8.208;2023-02-01T00:46:45;8.40;;;6.22;;
18455;SDS011;9357;49.900;8.208;2023-02-01T00:48:18;8.30;;;6.38;;
18455;SDS011;9357;49.900;8.208;2023-02-01T00:49:49;9.60;;;6.70;;
18455;SDS011;9357;49.900;8.208;2023-02-01T00:51:23;8.80;;;6.70;;
18455;SDS011;9357;49.900;8.208;2023-02-01T00:52:57;7.20;;;6.03;;
18455;SDS011;9357;49.900;8.208;2023-02-01T00:54:30;8.32;;;6.80;;
18455;SDS011;9357;49.900;8.208;2023-02-01T00:56:03;7.57;;;6.38;;
18455;SDS011;9357;49.900;8.208;2023-02-01T00:57:36;6.78;;;6.03;;
18455;SDS011;9357;49.900;8.208;2023-02-01T00:59:10;8.05;;;6.18;;
18455;SDS011;9357;49.900;8.208;2023-02-01T01:00:44;8.98;;;6.40;;
18455;SDS011;9357;49.900;8.208;2023-02-01T01:02:17;8.25;;;6.40;;
18455;SDS011;9357;49.900;8.208;2023-02-01T01:03:51;8.00;;;6.60;;
18455;SDS011;9357;49.900;8.208;2023-02-01T01:05:25;10.38;;;6.30;;
18455;SDS011;9357;49.900;8.208;2023-02-01T01:06:58;8.40;;;6.75;;
18455;SDS011;9357;49.900;8.208;2023-02-01T01:08:31;9.65;;;7.22;;
18455;SDS011;9357;49.900;8.208;2023-02-01T01:10:05;9.23;;;7.15;;
18455;SDS011;9357;49.900;8.208;2023-02-01T01:11:38;8.15;;;6.65;;
18455;SDS011;9357;49.900;8.208;2023-02-01T01:13:11;8.35;;;6.45;;
18455;SDS011;9357;49.900;8.208;2023-02-01T01:14:43;7.85;;;6.32;;
18455;SDS011;9357;49.900;8.208;2023-02-01T01:16:17;8.98;;;7.07;;
18455;SDS011;9357;49.900;8.208;2023-02-01T01:17:50;8.02;;;6.40;;
18455;SDS011;9357;49.900;8.208;2023-02-01T01:19:22;10.88;;;7.10;;
18455;SDS011;9357;49.900;8.208;2023-02-01T01:20:55;9.00;;;7.28;;
18455;SDS011;9357;49.900;8.208;2023-02-01T01:22:28;10.23;;;7.53;;
18455;SDS011;9357;49.900;8.208;2023-02-01T01:24:01;11.93;;;7.45;;
18455;SDS011;9357;49.900;8.208;2023-02-01T01:25:36;10.32;;;7.60;;
18455;SDS011;9357;49.900;8.208;2023-02-01T01:27:08;9.75;;;7.32;;
18455;SDS011;9357;49.900;8.208;2023-02-01T01:28:41;11.40;;;7.88;;
18455;SDS011;9357;49.900;8.208;2023-02-01T01:30:13;11.18;;;8.45;;
18455;SDS011;9357;49.900;8.208;2023-02-01T01:31:47;9.80;;;7.78;;
18455;SDS011;9357;49.900;8.208;2023-02-01T01:33:20;10.68;;;7.82;;
18455;SDS011;9357;49.900;8.208;2023-02-01T01:34:52;10.95;;;7.53;;
18455;SDS011;9357;49.900;8.208;2023-02-01T01:36:25;13.75;;;8.32;;
18455;SDS011;9357;49.900;8.208;2023-02-01T01:37:59;10.23;;;7.32;;
18455;SDS011;9357;49.900;8.208;2023-02-01T01:39:31;11.13;;;7.90;;
18455;SDS011;9357;49.900;8.208;2023-02-01T01:41:04;11.80;;;7.95;;
18455;SDS011;9357;49.900;8.208;2023-02-01T01:42:37;8.73;;;7.45;;
18455;SDS011;9357;49.900;8.208;2023-02-01T01:46:18;10.18;;;7.97;;
18455;SDS011;9357;49.900;8.208;2023-02-01T01:47:53;11.30;;;8.15;;
18455;SDS011;9357;49.900;8.208;2023-02-01T01:49:28;11.88;;;7.88;;
18455;SDS011;9357;49.900;8.208;2023-02-01T01:51:01;9.63;;;7.65;;
18455;SDS011;9357;49.900;8.208;2023-02-01T01:52:37;11.95;;;8.13;;
18455;SDS011;9357;49.900;8.208;2023-02-01T01:54:13;13.30;;;8.20;;
18455;SDS011;9357;49.900;8.208;2023-02-01T01:55:49;12.80;;;8.55;;
18455;SDS011;9357;49.900;8.208;2023-02-01T01:57:23;11.05;;;8.05;;
18455;SDS011;9357;49.900;8.208;2023-02-01T01:58:58;14.25;;;8.50;;
18455;SDS011;9357;49.900;8.208;2023-02-01T02:00:32;12.57;;;8.43;;
18455;SDS011;9357;49.900;8.208;2023-02-01T02:02:04;14.95;;;8.90;;
18455;SDS011;9357;49.900;8.208;2023-02-01T02:03:39;12.70;;;8.40;;
18455;SDS011;9357;49.900;8.208;2023-02-01T02:05:13;14.45;;;8.90;;
18455;SDS011;9357;49.900;8.208;2023-02-01T02:06:49;14.60;;;8.35;;
18455;SDS011;9357;49.900;8.208;2023-02-01T02:08:26;13.05;;;8.52;;
18455;SDS011;9357;49.900;8.208;2023-02-01T02:09:59;12.27;;;8.30;;
18455;SDS011;9357;49.900;8.208;2023-02-01T02:11:32;11.88;;;8.25;;
18455;SDS011;9357;49.900;8.208;2023-02-01T02:13:05;13.75;;;9.30;;
18455;SDS011;9357;49.900;8.208;2023-02-01T02:14:37;12.60;;;8.95;;
18455;SDS011;9357;49.900;8.208;2023-02-01T02:16:17;13.73;;;9.23;;
18455;SDS011;9357;49.900;8.208;2023-02-01T02:17:58;12.02;;;8.30;;
18455;SDS011;9357;49.900;8.208;2023-02-01T02:19:45;14.68;;;9.40;;
18455;SDS011;9357;49.900;8.208;2023-02-01T02:21:41;15.90;;;8.63;;
18455;SDS011;9357;49.900;8.208;2023-02-01T02:23:33;15.30;;;8.50;;
18455;SDS011;9357;49.900;8.208;2023-02-01T02:25:35;11.48;;;8.45;;
18455;SDS011;9357;49.900;8.208;2023-02-01T02:27:34;11.95;;;8.90;;
18455;SDS011;9357;49.900;8.208;2023-02-01T02:31:31;15.32;;;8.93;;
18455;SDS011;9357;49.900;8.208;2023-02-01T02:35:25;15.27;;;9.40;;
18455;SDS011;9357;49.900;8.208;2023-02-01T02:37:04;16.33;;;9.43;;
18455;SDS011;9357;49.900;8.208;2023-02-01T02:38:48;16.23;;;9.77;;
18455;SDS011;9357;49.900;8.208;2023-02-01T02:40:31;17.90;;;9.88;;
18455;SDS011;9357;49.900;8.208;2023-02-01T02:42:10;15.95;;;10.02;;
18455;SDS011;9357;49.900;8.208;2023-02-01T02:44:09;14.80;;;9.88;;
18455;SDS011;9357;49.900;8.208;2023-02-01T02:46:04;16.98;;;9.77;;
18455;SDS011;9357;49.900;8.208;2023-02-01T02:47:59;15.30;;;9.23;;
18455;SDS011;9357;49.900;8.208;2023-02-01T02:49:42;12.95;;;8.93;;
18455;SDS011;9357;49.900;8.208;2023-02-01T02:51:43;14.10;;;9.23;;
18455;SDS011;9357;49.900;8.208;2023-02-01T02:53:37;13.45;;;8.38;;
18455;SDS011;9357;49.900;8.208;2023-02-01T02:55:34;14.13;;;8.82;;
18455;SDS011;9357;49.900;8.208;2023-02-01T02:57:10;13.98;;;8.65;;
18455;SDS011;9357;49.900;8.208;2023-02-01T02:59:04;13.93;;;8.57;;
18455;SDS011;9357;49.900;8.208;2023-02-01T03:00:56;13.77;;;8.38;;
18455;SDS011;9357;49.900;8.208;2023-02-01T03:02:47;13.80;;;8.65;;
18455;SDS011;9357;49.900;8.208;2023-02-01T03:04:38;13.88;;;8.60;;
18455;SDS011;9357;49.900;8.208;2023-02-01T03:06:13;15.00;;;8.18;;
18455;SDS011;9357;49.900;8.208;2023-02-01T03:07:50;13.95;;;8.77;;
18455;SDS011;9357;49.900;8.208;2023-02-01T03:09:33;14.05;;;8.25;;
18455;SDS011;9357;49.900;8.208;2023-02-01T03:11:09;13.57;;;7.82;;
18455;SDS011;9357;49.900;8.208;2023-02-01T03:12:44;14.23;;;8.32;;
18455;SDS011;9357;49.900;8.208;2023-02-01T03:14:28;11.60;;;7.32;;
18455;SDS011;9357;49.900;8.208;2023-02-01T03:16:06;12.60;;;7.80;;
18455;SDS011;9357;49.900;8.208;2023-02-01T03:17:42;12.68;;;7.97;;
18455;SDS011;9357;49.900;8.208;2023-02-01T03:19:17;11.40;;;8.05;;
18455;SDS011;9357;49.900;8.208;2023-02-01T03:20:53;11.30;;;8.10;;
18455;SDS011;9357;49.900;8.208;2023-02-01T03:22:30;13.88;;;8.05;;
18455;SDS011;9357;49.900;8.208;2023-02-01T03:24:07;11.88;;;8.13;;
18455;SDS011;9357;49.900;8.208;2023-02-01T03:25:43;14.55;;;8.27;;
18455;SDS011;9357;49.900;8.208;2023-02-01T03:27:20;12.43;;;8.20;;
18455;SDS011;9357;49.900;8.208;2023-02-01T03:28:57;15.60;;;8.38;;
18455;SDS011;9357;49.900;8.208;2023-02-01T03:30:37;14.32;;;8.23;;
18455;SDS011;9357;49.900;8.208;2023-02-01T03:32:11;14.23;;;8.20;;
18455;SDS011;9357;49.900;8.208;2023-02-01T03:33:44;11.40;;;8.20;;
18455;SDS011;9357;49.900;8.208;2023-02-01T03:35:17;12.20;;;7.63;;
18455;SDS011;9357;49.900;8.208;2023-02-01T03:36:52;12.73;;;8.20;;
18455;SDS011;9357;49.900;8.208;2023-02-01T03:38:32;11.40;;;7.35;;
18455;SDS011;9357;49.900;8.208;2023-02-01T03:40:07;12.50;;;7.93;;
18455;SDS011;9357;49.900;8.208;2023-02-01T03:41:43;11.95;;;7.32;;
18455;SDS011;9357;49.900;8.208;2023-02-01T03:43:19;15.70;;;7.88;;
18455;SDS011;9357;49.900;8.208;2023-02-01T03:44:57;12.48;;;8.05;;
18455;SDS011;9357;49.900;8.208;2023-02-01T03:46:34;13.18;;;7.88;;
18455;SDS011;9357;49.900;8.208;2023-02-01T03:48:10;11.55;;;7.13;;
18455;SDS011;9357;49.900;8.208;2023-02-01T03:49:45;10.13;;;7.38;;
18455;SDS011;9357;49.900;8.208;2023-02-01T03:51:21;10.40;;;6.60;;
18455;SDS011;9357;49.900;8.208;2023-02-01T03:52:56;11.48;;;7.32;;
18455;SDS011;9357;49.900;8.208;2023-02-01T03:54:34;9.27;;;7.10;;
18455;SDS011;9357;49.900;8.208;2023-02-01T03:56:09;8.73;;;6.25;;
18455;SDS011;9357;49.900;8.208;2023-02-01T03:57:43;10.48;;;6.88;;
18455;SDS011;9357;49.900;8.208;2023-02-01T03:59:20;14.38;;;8.75;;
18455;SDS011;9357;49.900;8.208;2023-02-01T04:00:54;13.00;;;8.02;;
18455;SDS011;9357;49.900;8.208;2023-02-01T04:02:27;13.20;;;8.68;;
18455;SDS011;9357;49.900;8.208;2023-02-01T04:04:00;12.80;;;7.65;;
18455;SDS011;9357;49.900;8.208;2023-02-01T04:05:33;16.92;;;10.40;;
18455;SDS011;9357;49.900;8.208;2023-02-01T04:07:06;22.80;;;10.95;;
18455;SDS011;9357;49.900;8.208;2023-02-01T04:08:39;18.13;;;9.32;;
18455;SDS011;9357;49.900;8.208;2023-02-01T04:10:13;20.55;;;10.57;;
18455;SDS011;9357;49.900;8.208;2023-02-01T04:11:49;17.40;;;8.98;;
18455;SDS011;9357;49.900;8.208;2023-02-01T04:13:22;12.35;;;7.50;;
18455;SDS011;9357;49.900;8.208;2023-02-01T04:14:55;10.23;;;6.43;;
18455;SDS011;9357;49.900;8.208;2023-02-01T04:16:27;13.25;;;7.30;;
18455;SDS011;9357;49.900;8.208;2023-02-01T04:17:59;10.27;;;6.47;;
18455;SDS011;9357;49.900;8.208;2023-02-01T04:19:31;9.13;;;6.38;;
18455;SDS011;9357;49.900;8.208;2023-02-01T04:21:04;9.45;;;6.30;;
18455;SDS011;9357;49.900;8.208;2023-02-01T04:22:37;11.05;;;7.15;;
18455;SDS011;9357;49.900;8.208;2023-02-01T04:24:10;12.98;;;6.65;;
18455;SDS011;9357;49.900;8.208;2023-02-01T04:25:44;13.75;;;6.72;;
18455;SDS011;9357;49.900;8.208;2023-02-01T04:27:17;10.75;;;6.30;;
18455;SDS011;9357;49.900;8.208;2023-02-01T04:28:50;7.20;;;5.50;;
18455;SDS011;9357;49.900;8.208;2023-02-01T04:30:23;8.93;;;6.03;;
18455;SDS011;9357;49.900;8.208;2023-02-01T04:31:56;8.43;;;5.43;;
18455;SDS011;9357;49.900;8.208;2023-02-01T04:33:29;8.35;;;5.88;;
18455;SDS011;9357;49.900;8.208;2023-02-01T04:35:03;8.95;;;6.15;;
18455;SDS011;9357;49.900;8.208;2023-02-01T04:36:36;9.60;;;5.63;;
18455;SDS011;9357;49.900;8.208;2023-02-01T04:38:09;8.48;;;5.55;;
18455;SDS011;9357;49.900;8.208;2023-02-01T04:39:43;8.25;;;5.40;;
18455;SDS011;9357;49.900;8.208;2023-02-01T04:41:17;11.65;;;6.13;;
18455;SDS011;9357;49.900;8.208;2023-02-01T04:42:50;9.75;;;5.75;;
18455;SDS011;9357;49.900;8.208;2023-02-01T04:44:22;12.90;;;6.32;;
18455;SDS011;9357;49.900;8.208;2023-02-01T04:45:55;7.60;;;4.97;;
18455;SDS011;9357;49.900;8.208;2023-02-01T04:47:28;10.82;;;5.30;;
18455;SDS011;9357;49.900;8.208;2023-02-01T04:49:00;8.15;;;4.95;;
18455;SDS011;9357;49.900;8.208;2023-02-01T04:50:33;9.23;;;4.68;;
18455;SDS011;9357;49.900;8.208;2023-02-01T04:52:05;9.18;;;4.63;;
18455;SDS011;9357;49.900;8.208;2023-02-01T04:53:38;8.18;;;4.72;;
18455;SDS011;9357;49.900;8.208;2023-02-01T04:55:11;7.45;;;4.18;;
18455;SDS011;9357;49.900;8.208;2023-02-01T04:56:46;11.70;;;4.65;;
18455;SDS011;9357;49.900;8.208;2023-02-01T04:58:18;8.82;;;4.45;;
18455;SDS011;9357;49.900;8.208;2023-02-01T04:59:50;10.38;;;4.10;;
18455;SDS011;9357;49.900;8.208;2023-02-01T05:01:23;10.30;;;4.05;;
18455;SDS011;9357;49.900;8.208;2023-02-01T05:02:56;9.05;;;4.07;;
18455;SDS011;9357;49.900;8.208;2023-02-01T05:04:29;9.60;;;4.47;;
18455;SDS011;9357;49.900;8.208;2023-02-01T05:06:01;13.13;;;4.03;;
18455;SDS011;9357;49.900;8.208;2023-02-01T05:07:35;8.38;;;3.55;;
18455;SDS011;9357;49.900;8.208;2023-02-01T05:09:07;11.80;;;4.18;;
18455;SDS011;9357;49.900;8.208;2023-02-01T05:10:40;9.50;;;3.80;;
18455;SDS011;9357;49.900;8.208;2023-02-01T05:12:13;10.52;;;4.25;;
18455;SDS011;9357;49.900;8.208;2023-02-01T05:14:04;10.00;;;3.88;;
18455;SDS011;9357;49.900;8.208;2023-02-01T05:15:36;7.28;;;3.53;;
18455;SDS011;9357;49.900;8.208;2023-02-01T05:17:09;11.30;;;3.40;;
18455;SDS011;9357;49.900;8.208;2023-02-01T05:18:42;6.95;;;3.33;;
18455;SDS011;9357;49.900;8.208;2023-02-01T05:20:15;6.50;;;2.88;;
18455;SDS011;9357;49.900;8.208;2023-02-01T05:21:47;8.38;;;2.60;;
18455;SDS011;9357;49.900;8.208;2023-02-01T05:23:20;3.88;;;2.30;;
18455;SDS011;9357;49.900;8.208;2023-02-01T05:24:53;3.58;;;1.92;;
18455;SDS011;9357;49.900;8.208;2023-02-01T05:26:25;4.15;;;2.03;;
18455;SDS011;9357;49.900;8.208;2023-02-01T05:27:59;4.82;;;2.08;;
18455;SDS011;9357;49.900;8.208;2023-02-01T05:29:32;3.40;;;1.70;;
18455;SDS011;9357;49.900;8.208;2023-02-01T05:31:09;4.70;;;2.10;;
18455;SDS011;9357;49.900;8.208;2023-02-01T05:32:42;3.38;;;1.80;;
18455;SDS011;9357;49.900;8.208;2023-02-01T05:34:15;2.55;;;1.52;;
18455;SDS011;9357;49.900;8.208;2023-02-01T05:35:48;1.92;;;1.65;;
18455;SDS011;9357;49.900;8.208;2023-02-01T05:37:21;3.45;;;1.75;;
18455;SDS011;9357;49.900;8.208;2023-02-01T05:38:54;3.65;;;1.95;;
18455;SDS011;9357;49.900;8.208;2023-02-01T05:40:26;3.40;;;1.95;;
18455;SDS011;9357;49.900;8.208;2023-02-01T05:41:58;4.75;;;2.08;;
18455;SDS011;9357;49.900;8.208;2023-02-01T05:43:32;7.70;;;2.03;;
18455;SDS011;9357;49.900;8.208;2023-02-01T05:45:05;3.78;;;2.20;;
18455;SDS011;9357;49.900;8.208;2023-02-01T05:46:38;3.63;;;2.13;;
18455;SDS011;9357;49.900;8.208;2023-02-01T05:48:11;3.20;;;1.80;;
18455;SDS011;9357;49.900;8.208;2023-02-01T05:49:44;6.28;;;2.38;;
18455;SDS011;9357;49.900;8.208;2023-02-01T05:51:16;3.50;;;2.08;;
18455;SDS011;9357;49.900;8.208;2023-02-01T05:52:48;4.65;;;2.53;;
18455;SDS011;9357;49.900;8.208;2023-02-01T05:54:21;4.05;;;2.00;;
18455;SDS011;9357;49.900;8.208;2023-02-01T05:55:54;6.38;;;2.28;;
18455;SDS011;9357;49.900;8.208;2023-02-01T05:57:26;6.03;;;2.65;;
18455;SDS011;9357;49.900;8.208;2023-02-01T05:59:00;5.97;;;2.60;;
18455;SDS011;9357;49.900;8.208;2023-02-01T06:00:33;4.38;;;2.28;;
18455;SDS011;9357;49.900;8.208;2023-02-01T06:02:06;2.45;;;1.95;;
18455;SDS011;9357;49.900;8.208;2023-02-01T06:03:39;6.45;;;2.20;;
18455;SDS011;9357;49.900;8.208;2023-02-01T06:05:11;6.45;;;2.17;;
18455;SDS011;9357;49.900;8.208;2023-02-01T06:06:44;3.90;;;2.20;;
18455;SDS011;9357;49.900;8.208;2023-02-01T06:08:16;3.67;;;2.20;;
18455;SDS011;9357;49.900;8.208;2023-02-01T06:09:49;3.28;;;1.88;;
18455;SDS011;9357;49.900;8.208;2023-02-01T06:11:22;5.15;;;2.40;;
18455;SDS011;9357;49.900;8.208;2023-02-01T06:13:03;5.30;;;2.70;;
18455;SDS011;9357;49.900;8.208;2023-02-01T06:14:37;8.48;;;3.17;;
18455;SDS011;9357;49.900;8.208;2023-02-01T06:16:10;7.82;;;3.45;;
18455;SDS011;9357;49.900;8.208;2023-02-01T06:17:43;6.53;;;3.10;;
18455;SDS011;9357;49.900;8.208;2023-02-01T06:19:16;7.93;;;2.75;;
18455;SDS011;9357;49.900;8.208;2023-02-01T06:20:51;8.48;;;2.90;;
18455;SDS011;9357;49.900;8.208;2023-02-01T06:22:25;5.10;;;2.88;;
18455;SDS011;9357;49.900;8.208;2023-02-01T06:23:58;7.75;;;3.38;;
18455;SDS011;9357;49.900;8.208;2023-02-01T06:25:30;10.57;;;3.60;;
18455;SDS011;9357;49.900;8.208;2023-02-01T06:27:03;11.25;;;4.75;;
18455;SDS011;9357;49.900;8.208;2023-02-01T06:28:36;14.63;;;4.65;;
18455;SDS011;9357;49.900;8.208;2023-02-01T06:30:12;9.07;;;3.70;;
18455;SDS011;9357;49.900;8.208;2023-02-01T06:31:45;9.15;;;3.97;;
18455;SDS011;9357;49.900;8.208;2023-02-01T06:33:18;12.25;;;4.15;;
18455;SDS011;9357;49.900;8.208;2023-02-01T06:34:51;9.63;;;4.28;;
18455;SDS011;9357;49.900;8.208;2023-02-01T06:36:24;10.88;;;3.95;;
18455;SDS011;9357;49.900;8.208;2023-02-01T06:37:56;11.30;;;4.70;;
18455;SDS011;9357;49.900;8.208;2023-02-01T06:39:29;9.02;;;3.90;;
18455;SDS011;9357;49.900;8.208;2023-02-01T06:41:02;11.85;;;4.38;;
18455;SDS011;9357;49.900;8.208;2023-02-01T06:42:35;11.88;;;3.90;;
18455;SDS011;9357;49.900;8.208;2023-02-01T06:44:08;10.48;;;4.30;;
18455;SDS011;9357;49.900;8.208;2023-02-01T06:45:42;12.20;;;5.32;;
18455;SDS011;9357;49.900;8.208;2023-02-01T06:47:15;11.70;;;4.50;;
18455;SDS011;9357;49.900;8.208;2023-02-01T06:48:47;11.65;;;4.78;;
18455;SDS011;9357;49.900;8.208;2023-02-01T06:50:22;9.43;;;4.43;;
18455;SDS011;9357;49.900;8.208;2023-02-01T06:51:55;8.55;;;4.13;;
18455;SDS011;9357;49.900;8.208;2023-02-01T06:53:28;10.07;;;4.45;;
18455;SDS011;9357;49.900;8.208;2023-02-01T06:55:02;9.30;;;4.75;;
18455;SDS011;9357;49.900;8.208;2023-02-01T06:56:35;8.68;;;4.32;;
18455;SDS011;9357;49.900;8.208;2023-02-01T06:58:08;10.15;;;4.20;;
18455;SDS011;9357;49.900;8.208;2023-02-01T06:59:40;11.00;;;4.60;;
18455;SDS011;9357;49.900;8.208;2023-02-01T07:01:15;11.48;;;4.75;;
18455;SDS011;9357;49.900;8.208;2023-02-01T07:02:48;14.02;;;5.28;;
18455;SDS011;9357;49.900;8.208;2023-02-01T07:04:21;10.32;;;4.80;;
18455;SDS011;9357;49.900;8.208;2023-02-01T07:05:55;7.95;;;3.58;;
18455;SDS011;9357;49.900;8.208;2023-02-01T07:07:29;7.07;;;3.95;;
18455;SDS011;9357;49.900;8.208;2023-02-01T07:09:02;8.20;;;3.95;;
18455;SDS011;9357;49.900;8.208;2023-02-01T07:10:35;10.90;;;4.25;;
18455;SDS011;9357;49.900;8.208;2023-02-01T07:12:07;11.48;;;4.60;;
18455;SDS011;9357;49.900;8.208;2023-02-01T07:13:40;12.35;;;4.43;;
18455;SDS011;9357;49.900;8.208;2023-02-01T07:15:13;8.40;;;4.00;;
18455;SDS011;9357;49.900;8.208;2023-02-01T07:16:47;10.43;;;4.60;;
18455;SDS011;9357;49.900;8.208;2023-02-01T07:18:20;12.60;;;4.43;;
18455;SDS011;9357;49.900;8.208;2023-02-01T07:19:53;13.98;;;4.75;;
18455;SDS011;9357;49.900;8.208;2023-02-01T07:21:26;16.00;;;5.65;;
18455;SDS011;9357;49.900;8.208;2023-02-01T07:22:59;11.48;;;4.53;;
18455;SDS011;9357;49.900;8.208;2023-02-01T07:24:33;12.65;;;4.63;;
18455;SDS011;9357;49.900;8.208;2023-02-01T07:26:06;14.38;;;4.53;;
18455;SDS011;9357;49.900;8.208;2023-02-01T07:27:42;13.18;;;4.97;;
18455;SDS011;9357;49.900;8.208;2023-02-01T07:29:14;11.05;;;4.70;;
18455;SDS011;9357;49.900;8.208;2023-02-01T07:30:47;14.40;;;4.60;;
18455;SDS011;9357;49.900;8.208;2023-02-01T07:32:23;12.88;;;4.82;;
18455;SDS011;9357;49.900;8.208;2023-02-01T07:33:56;16.15;;;5.70;;
18455;SDS011;9357;49.900;8.208;2023-02-01T07:35:29;14.57;;;5.30;;
18455;SDS011;9357;49.900;8.208;2023-02-01T07:37:02;16.50;;;5.88;;
18455;SDS011;9357;49.900;8.208;2023-02-01T07:38:34;13.50;;;5.10;;
18455;SDS011;9357;49.900;8.208;2023-02-01T07:40:08;13.77;;;4.50;;
18455;SDS011;9357;49.900;8.208;2023-02-01T07:41:41;12.52;;;5.25;;
18455;SDS011;9357;49.900;8.208;2023-02-01T07:43:14;13.88;;;4.90;;
18455;SDS011;9357;49.900;8.208;2023-02-01T07:44:47;14.45;;;5.32;;
18455;SDS011;9357;49.900;8.208;2023-02-01T07:46:20;15.55;;;5.53;;
18455;SDS011;9357;49.900;8.208;2023-02-01T07:47:54;16.75;;;5.10;;
18455;SDS011;9357;49.900;8.208;2023-02-01T07:49:27;14.32;;;5.05;;
18455;SDS011;9357;49.900;8.208;2023-02-01T07:51:00;14.80;;;4.95;;
18455;SDS011;9357;49.900;8.208;2023-02-01T07:52:34;14.43;;;4.50;;
18455;SDS011;9357;49.900;8.208;2023-02-01T07:54:07;18.13;;;5.18;;
18455;SDS011;9357;49.900;8.208;2023-02-01T07:55:40;16.95;;;4.53;;
18455;SDS011;9357;49.900;8.208;2023-02-01T07:57:13;15.23;;;4.97;;
18455;SDS011;9357;49.900;8.208;2023-02-01T07:58:47;15.60;;;4.38;;
18455;SDS011;9357;49.900;8.208;2023-02-01T08:00:20;11.13;;;4.18;;
18455;SDS011;9357;49.900;8.208;2023-02-01T08:02:10;9.32;;;3.95;;
18455;SDS011;9357;49.900;8.208;2023-02-01T08:03:44;18.08;;;4.47;;
18455;SDS011;9357;49.900;8.208;2023-02-01T08:05:17;10.68;;;3.92;;
18455;SDS011;9357;49.900;8.208;2023-02-01T08:06:50;14.55;;;4.05;;
18455;SDS011;9357;49.900;8.208;2023-02-01T08:08:23;13.70;;;4.35;;
18455;SDS011;9357;49.900;8.208;2023-02-01T08:09:56;17.92;;;4.10;;
18455;SDS011;9357;49.900;8.208;2023-02-01T08:11:29;14.10;;;3.85;;
18455;SDS011;9357;49.900;8.208;2023-02-01T08:13:01;17.10;;;4.22;;
18455;SDS011;9357;49.900;8.208;2023-02-01T08:14:34;13.38;;;3.92;;
18455;SDS011;9357;49.900;8.208;2023-02-01T08:16:08;11.30;;;3.90;;
18455;SDS011;9357;49.900;8.208;2023-02-01T08:17:45;14.38;;;3.67;;
18455;SDS011;9357;49.900;8.208;2023-02-01T08:19:20;12.82;;;4.57;;
18455;SDS011;9357;49.900;8.208;2023-02-01T08:20:53;11.82;;;3.88;;
18455;SDS011;9357;49.900;8.208;2023-02-01T08:22:25;11.90;;;3.78;;
18455;SDS011;9357;49.900;8.208;2023-02-01T08:24:03;15.55;;;4.47;;
18455;SDS011;9357;49.900;8.208;2023-02-01T08:25:37;15.00;;;3.97;;
18455;SDS011;9357;49.900;8.208;2023-02-01T08:27:10;11.23;;;3.72;;
18455;SDS011;9357;49.900;8.208;2023-02-01T08:28:44;11.95;;;3.53;;
18455;SDS011;9357;49.900;8.208;2023-02-01T08:30:18;8.60;;;3.85;;
18455;SDS011;9357;49.900;8.208;2023-02-01T08:31:52;9.70;;;3.30;;
18455;SDS011;9357;49.900;8.208;2023-02-01T08:33:25;13.02;;;3.42;;
18455;SDS011;9357;49.900;8.208;2023-02-01T08:34:59;14.18;;;3.80;;
18455;SDS011;9357;49.900;8.208;2023-02-01T08:36:32;10.65;;;3.40;;
18455;SDS011;9357;49.900;8.208;2023-02-01T08:38:04;14.13;;;4.10;;
18455;SDS011;9357;49.900;8.208;2023-02-01T08:39:37;9.13;;;3.30;;
18455;SDS011;9357;49.900;8.208;2023-02-01T08:41:11;15.63;;;3.67;;
18455;SDS011;9357;49.900;8.208;2023-02-01T08:42:45;10.38;;;3.10;;
18455;SDS011;9357;49.900;8.208;2023-02-01T08:44:22;12.25;;;3.35;;
18455;SDS011;9357;49.900;8.208;2023-02-01T08:45:55;14.45;;;3.20;;
18455;SDS011;9357;49.900;8.208;2023-02-01T08:47:28;14.35;;;3.45;;
18455;SDS011;9357;49.900;8.208;2023-02-01T08:49:01;11.65;;;3.78;;
18455;SDS011;9357;49.900;8.208;2023-02-01T08:50:35;12.27;;;3.17;;
18455;SDS011;9357;49.900;8.208;2023-02-01T08:52:07;11.70;;;2.83;;
18455;SDS011;9357;49.900;8.208;2023-02-01T08:53:46;9.38;;;2.88;;
18455;SDS011;9357;49.900;8.208;2023-02-01T08:55:19;13.70;;;3.42;;
18455;SDS011;9357;49.900;8.208;2023-02-01T08:56:52;11.80;;;3.35;;
18455;SDS011;9357;49.900;8.208;2023-02-01T08:58:25;13.15;;;2.95;;
18455;SDS011;9357;49.900;8.208;2023-02-01T08:59:58;10.45;;;3.00;;
18455;SDS011;9357;49.900;8.208;2023-02-01T09:01:31;14.90;;;3.50;;
18455;SDS011;9357;49.900;8.208;2023-02-01T09:03:04;12.35;;;3.10;;
18455;SDS011;9357;49.900;8.208;2023-02-01T09:04:37;12.10;;;3.03;;
18455;SDS011;9357;49.900;8.208;2023-02-01T09:06:11;12.52;;;3.03;;
18455;SDS011;9357;49.900;8.208;2023-02-01T09:07:45;12.30;;;3.00;;
18455;SDS011;9357;49.900;8.208;2023-02-01T09:09:18;16.08;;;3.20;;
18455;SDS011;9357;49.900;8.208;2023-02-01T09:10:51;15.10;;;3.30;;
18455;SDS011;9357;49.900;8.208;2023-02-01T09:12:23;10.30;;;2.95;;
18455;SDS011;9357;49.900;8.208;2023-02-01T09:13:56;10.88;;;2.72;;
18455;SDS011;9357;49.900;8.208;2023-02-01T09:15:29;12.23;;;3.15;;
18455;SDS011;9357;49.900;8.208;2023-02-01T09:17:02;10.30;;;2.55;;
18455;SDS011;9357;49.900;8.208;2023-02-01T09:18:36;12.55;;;3.15;;
18455;SDS011;9357;49.900;8.208;2023-02-01T09:20:26;13.48;;;3.10;;
18455;SDS011;9357;49.900;8.208;2023-02-01T09:22:00;10.15;;;3.25;;
18455;SDS011;9357;49.900;8.208;2023-02-01T09:23:33;13.57;;;3.03;;
18455;SDS011;9357;49.900;8.208;2023-02-01T09:25:07;9.73;;;2.90;;
18455;SDS011;9357;49.900;8.208;2023-02-01T09:26:40;14.32;;;2.78;;
18455;SDS011;9357;49.900;8.208;2023-02-01T09:28:13;10.77;;;2.47;;
18455;SDS011;9357;49.900;8.208;2023-02-01T09:29:46;10.95;;;3.17;;
18455;SDS011;9357;49.900;8.208;2023-02-01T09:31:23;10.40;;;2.67;;
18455;SDS011;9357;49.900;8.208;2023-02-01T09:32:56;10.00;;;2.70;;
18455;SDS011;9357;49.900;8.208;2023-02-01T09:34:28;11.02;;;2.80;;
18455;SDS011;9357;49.900;8.208;2023-02-01T09:36:02;11.65;;;2.90;;
18455;SDS011;9357;49.900;8.208;2023-02-01T09:37:37;12.68;;;2.85;;
18455;SDS011;9357;49.900;8.208;2023-02-01T09:39:10;7.05;;;3.08;;
18455;SDS011;9357;49.900;8.208;2023-02-01T09:40:44;11.98;;;2.97;;